RJAW/IWO METAR and TAF weather

Enter ICAO airport designator
Station Type Date Time Source
RJAW METAR 2019/06/17 04:00 UTC NOAA

RJAW 170400Z 20010KT 180V240 9999 FEW005 SCT010 29/27 Q1013 RMK 2ST005 3CU010 A2993


Station Type Date Time Source
RJAW Decoded METAR 2019/06/17 04:00 UTC NOAA

Iwojima, Japan (RJAW) 24-47N 141-19E 116M
Jun 17, 2019 - 12:00 AM EDT / 2019.06.17 0400 UTC
Wind: from the SSW (200 degrees) at 12 MPH (10 KT) (direction variable):0
Visibility: greater than 7 mile(s):0
Sky conditions: partly cloudy
Temperature: 84 F (29 C)
Dew Point: 80 F (27 C)
Relative Humidity: 88%
Pressure (altimeter): 29.91 in. Hg (1013 hPa)
ob: RJAW 170400Z 20010KT 180V240 9999 FEW005 SCT010 29/27 Q1013 RMK 2ST005 3CU010 A2993
cycle: 4

Station Type Date Time Source
RJAW TAF UTC NOAA

Error!

Example: see airport list